4CO4 weather

St Anthony North Heliport
Westminster, Colorado, United States

Public forecast

Using degrees Fahrenheit for public forecast. Weather courtesy of forecast.io.

METAR (pilot weather report)

Closest report is Rocky Mountain Metropolitan Airport, 5.8 nm (10.7 km) NW. Retrieved 2019/04/23 23:45 UTC (32 minutes ago):

KBJC 232345Z 01005KT 10SM FEW120 17/04 A3003

TAF (pilot weather forecast)

Forecast is more than 12 hours old.

Closest forecast is Rocky Mountain Metropolitan Airport, 5.8 nm (10.7 km) NW. Retrieved 2019/04/23 00:22 UTC (24 hours ago):

TAF KBJC 232320Z 2400/2424 35007KT P6SM FEW080 FEW120 FM240200 VRB04KT P6SM FEW220 FM240500 25006KT P6SM SKC FM241800 VRB04KT P6SM SCT100